Time;durP1;ratioP1;P1;durP2;ratioP2;P2;SDS_P1;SDS_P2;PMS_P1;PMS_P2;Temp;Humidity;BMP_temperature;BMP_pressure;BME280_temperature;BME280_humidity;BME280_pressure;Samples;Min_cycle;Max_cycle;Signal;HPM_P1;HPM_P2
2022/08/16 00:00:48;;;;;;;16.40;14.80;;;21.80;99.90;;;;;;5021973;28;20033;-79
2022/08/16 00:03:14;;;;;;;15.73;14.23;;;21.80;99.90;;;;;;5001245;28;20045;-79
2022/08/16 00:05:41;;;;;;;15.32;13.82;;;21.80;99.90;;;;;;4999748;28;20049;-78
2022/08/16 00:08:07;;;;;;;15.23;13.77;;;21.80;99.90;;;;;;5006176;28;20041;-78
2022/08/16 00:10:34;;;;;;;16.42;14.82;;;21.80;99.90;;;;;;5006740;28;20049;-78
2022/08/16 00:13:02;;;;;;;16.13;14.48;;;21.70;99.90;;;;;;5004821;28;20045;-77
2022/08/16 00:15:42;;;;;;;14.40;12.90;;;21.80;99.90;;;;;;5003274;28;20506;-78
2022/08/16 00:18:09;;;;;;;15.77;14.18;;;21.80;99.90;;;;;;5008789;28;20055;-78
2022/08/16 00:20:38;;;;;;;16.02;14.50;;;21.80;99.90;;;;;;5020516;28;20095;-78
2022/08/16 00:23:06;;;;;;;16.00;14.30;;;21.80;99.90;;;;;;5006171;28;20119;-78
2022/08/16 00:25:32;;;;;;;15.10;13.60;;;21.80;99.90;;;;;;5002609;28;20057;-78
2022/08/16 00:27:58;;;;;;;17.58;15.50;;;21.80;99.90;;;;;;5024884;28;20076;-78
2022/08/16 00:30:24;;;;;;;17.70;15.98;;;21.80;99.90;;;;;;5025675;28;20045;-78
2022/08/16 00:32:52;;;;;;;16.83;15.10;;;21.80;99.90;;;;;;5004773;28;20111;-78
2022/08/16 00:35:23;;;;;;;16.95;15.32;;;21.80;99.90;;;;;;5025032;28;20128;-79
2022/08/16 00:37:49;;;;;;;17.02;15.32;;;21.70;99.90;;;;;;5007909;28;20049;-78
2022/08/16 00:40:21;;;;;;;18.27;16.20;;;21.70;99.90;;;;;;5008539;28;20038;-78
2022/08/16 00:42:47;;;;;;;17.63;15.68;;;21.70;99.90;;;;;;5027903;28;20619;-78
2022/08/16 00:45:34;;;;;;;18.63;16.67;;;21.70;99.90;;;;;;5000923;28;20209;-78
2022/08/16 00:48:04;;;;;;;17.95;16.20;;;21.70;99.90;;;;;;5034715;28;20075;-77
2022/08/16 00:50:33;;;;;;;18.85;17.00;;;21.70;99.90;;;;;;5012034;28;20127;-78
2022/08/16 00:52:59;;;;;;;18.48;16.67;;;21.60;99.90;;;;;;5006372;28;20080;-78
2022/08/16 00:55:25;;;;;;;16.52;14.95;;;21.60;99.90;;;;;;5005812;28;20121;-78
2022/08/16 00:57:54;;;;;;;17.80;16.10;;;21.60;99.90;;;;;;5021011;28;20229;-78
2022/08/16 01:00:24;;;;;;;15.45;13.88;;;21.60;99.90;;;;;;5023452;28;20080;-78
2022/08/16 01:02:50;;;;;;;18.05;16.10;;;21.60;99.90;;;;;;5023289;28;20194;-78
2022/08/16 01:05:17;;;;;;;17.95;16.27;;;21.50;99.90;;;;;;5007443;28;20062;-78
2022/08/16 01:07:44;;;;;;;19.35;17.30;;;21.50;99.90;;;;;;4992650;28;20122;-78
2022/08/16 01:10:10;;;;;;;17.52;15.82;;;21.50;99.90;;;;;;4992455;28;20046;-78
2022/08/16 01:12:36;;;;;;;17.73;15.82;;;21.40;99.90;;;;;;5007276;28;20502;-78
2022/08/16 01:15:02;;;;;;;18.33;16.10;;;21.40;99.90;;;;;;5007652;28;20060;-78
2022/08/16 01:17:30;;;;;;;18.17;16.27;;;21.40;99.90;;;;;;5024945;28;20081;-78
2022/08/16 01:20:00;;;;;;;16.75;14.45;;;21.30;99.90;;;;;;5021937;28;20049;-78
2022/08/16 01:22:44;;;;;;;18.23;16.55;;;21.30;99.90;;;;;;5007227;28;20052;-79
2022/08/16 01:25:34;;;;;;;17.55;15.73;;;21.30;99.90;;;;;;5020459;28;20057;-78
2022/08/16 01:28:02;;;;;;;18.58;16.48;;;21.30;99.90;;;;;;5024121;28;20049;-78
2022/08/16 01:30:32;;;;;;;17.45;15.65;;;21.20;99.90;;;;;;5020007;28;20049;-78
2022/08/16 01:33:01;;;;;;;16.55;14.95;;;21.20;99.90;;;;;;5001839;28;20053;-78
2022/08/16 01:35:32;;;;;;;18.15;16.25;;;21.10;99.90;;;;;;5007818;28;20042;-78
2022/08/16 01:38:18;;;;;;;18.17;15.43;;;21.10;99.90;;;;;;5006991;28;20061;-78
2022/08/16 01:40:44;;;;;;;18.55;16.10;;;21.10;99.90;;;;;;5022901;28;20046;-78
2022/08/16 01:43:10;;;;;;;17.40;15.60;;;21.10;99.90;;;;;;5021060;28;20037;-78
2022/08/16 01:45:36;;;;;;;19.63;17.58;;;21.10;99.90;;;;;;5009285;28;20053;-78
2022/08/16 01:48:02;;;;;;;18.80;16.95;;;21.00;99.90;;;;;;4990786;28;20155;-78
2022/08/16 01:50:28;;;;;;;18.38;16.58;;;21.40;99.90;;;;;;5007650;28;20052;-78
2022/08/16 01:52:54;;;;;;;18.58;16.65;;;21.00;99.90;;;;;;4991654;28;20053;-78
2022/08/16 01:55:21;;;;;;;20.63;18.17;;;21.00;99.90;;;;;;5006119;28;20482;-78
2022/08/16 01:57:47;;;;;;;18.80;17.00;;;21.00;99.90;;;;;;5021299;28;20045;-78
2022/08/16 02:00:14;;;;;;;16.45;14.75;;;21.00;99.90;;;;;;5007830;28;20041;-78
2022/08/16 02:02:42;;;;;;;16.63;15.02;;;21.00;99.90;;;;;;5023721;28;20044;-79
2022/08/16 02:05:09;;;;;;;14.60;13.20;;;21.00;99.90;;;;;;5006243;28;20085;-78
2022/08/16 02:07:34;;;;;;;14.65;13.18;;;21.00;99.90;;;;;;5008729;28;20521;-78
2022/08/16 02:10:00;;;;;;;14.25;12.15;;;21.00;99.90;;;;;;5001412;28;20463;-78
2022/08/16 02:12:28;;;;;;;12.05;10.85;;;21.00;99.90;;;;;;4992861;28;20080;-78
2022/08/16 02:14:54;;;;;;;10.82;9.70;;;21.00;99.90;;;;;;5005732;28;20053;-77
2022/08/16 02:17:20;;;;;;;12.93;9.77;;;21.00;99.90;;;;;;4992312;28;20080;-77
2022/08/16 02:19:48;;;;;;;9.93;8.85;;;21.10;99.90;;;;;;5021401;28;20121;-78
2022/08/16 02:22:17;;;;;;;9.60;8.43;;;21.10;99.90;;;;;;5021424;28;20049;-78
2022/08/16 02:24:44;;;;;;;10.75;8.65;;;21.20;99.90;;;;;;5021262;28;21140;-78
2022/08/16 02:27:10;;;;;;;8.60;7.07;;;21.20;99.90;;;;;;5002940;28;20052;-78
2022/08/16 02:29:37;;;;;;;10.10;8.90;;;21.30;99.90;;;;;;5005175;28;20104;-78
2022/08/16 02:32:03;;;;;;;10.82;9.73;;;21.30;99.90;;;;;;5023957;28;20057;-77
2022/08/16 02:34:29;;;;;;;10.57;8.40;;;21.30;99.90;;;;;;5006337;28;20057;-77
2022/08/16 02:36:55;;;;;;;9.95;8.95;;;21.30;99.90;;;;;;5006722;28;20079;-77
2022/08/16 02:39:21;;;;;;;12.15;9.35;;;21.30;99.90;;;;;;5005905;28;20077;-78
2022/08/16 02:41:49;;;;;;;11.05;9.88;;;21.30;99.90;;;;;;5004754;28;20041;-78
2022/08/16 02:44:16;;;;;;;10.77;8.73;;;21.30;99.90;;;;;;5007541;28;20053;-77
2022/08/16 02:46:43;;;;;;;10.55;8.70;;;21.30;99.90;;;;;;5019496;28;20046;-79
2022/08/16 02:49:09;;;;;;;10.05;9.00;;;21.20;99.90;;;;;;5005754;28;20128;-79
2022/08/16 02:51:36;;;;;;;10.43;8.88;;;21.20;99.90;;;;;;5005981;28;20044;-78
2022/08/16 02:54:04;;;;;;;11.13;10.02;;;21.20;99.90;;;;;;5021896;28;20050;-78
2022/08/16 02:56:29;;;;;;;12.48;10.48;;;21.10;99.90;;;;;;5007127;28;20041;-78
2022/08/16 02:58:56;;;;;;;13.30;11.90;;;21.10;99.90;;;;;;5020651;28;20056;-78
2022/08/16 03:01:24;;;;;;;13.15;11.85;;;21.00;99.90;;;;;;5005990;28;20042;-78
2022/08/16 03:03:51;;;;;;;15.65;12.68;;;20.90;99.90;;;;;;5019090;28;20088;-79
2022/08/16 03:06:19;;;;;;;13.40;11.95;;;20.90;99.90;;;;;;4990339;28;20150;-79
2022/08/16 03:08:46;;;;;;;13.57;12.27;;;20.80;99.90;;;;;;5000602;28;20102;-78
2022/08/16 03:11:13;;;;;;;16.52;13.93;;;20.80;99.90;;;;;;5003665;28;20758;-78
2022/08/16 03:13:40;;;;;;;13.93;12.43;;;20.80;99.90;;;;;;5005276;28;20160;-78
2022/08/16 03:16:06;;;;;;;14.00;11.43;;;20.70;99.90;;;;;;4976315;28;20052;-78
2022/08/16 03:18:32;;;;;;;14.05;12.75;;;20.70;99.90;;;;;;5004756;28;20049;-78
2022/08/16 03:20:58;;;;;;;13.75;12.10;;;20.60;99.90;;;;;;5003966;28;20360;-78
2022/08/16 03:23:24;;;;;;;15.82;14.10;;;20.60;99.90;;;;;;5021115;28;20053;-77
2022/08/16 03:25:50;;;;;;;15.77;12.32;;;20.60;99.90;;;;;;5021895;28;20076;-78
2022/08/16 03:28:16;;;;;;;15.70;14.00;;;20.50;99.90;;;;;;5018663;28;20129;-78
2022/08/16 03:30:42;;;;;;;14.85;13.25;;;20.50;99.90;;;;;;4999243;28;20056;-78
2022/08/16 03:33:09;;;;;;;15.15;13.52;;;20.50;99.90;;;;;;5022018;28;20128;-78
2022/08/16 03:35:36;;;;;;;16.60;14.82;;;20.40;99.90;;;;;;5019519;28;20552;-78
2022/08/16 03:38:05;;;;;;;15.93;14.32;;;20.40;99.90;;;;;;5000423;28;20049;-78
2022/08/16 03:40:33;;;;;;;14.05;12.75;;;20.40;99.90;;;;;;5001037;28;20502;-78
2022/08/16 03:43:02;;;;;;;16.05;14.45;;;20.40;99.90;;;;;;5038937;28;20049;-78
2022/08/16 03:45:28;;;;;;;17.92;16.05;;;20.40;99.90;;;;;;5025687;28;20053;-78
2022/08/16 03:47:54;;;;;;;16.08;13.27;;;20.40;99.90;;;;;;4992599;28;20056;-79
2022/08/16 03:50:19;;;;;;;15.98;14.13;;;20.40;99.90;;;;;;5010828;28;20045;-78
2022/08/16 03:52:46;;;;;;;16.85;15.13;;;20.50;99.90;;;;;;4995703;28;20048;-79
2022/08/16 03:55:12;;;;;;;17.02;14.95;;;20.50;99.90;;;;;;5003398;28;20068;-78
2022/08/16 03:57:37;;;;;;;15.00;13.52;;;20.40;99.90;;;;;;4993456;28;20622;-78
2022/08/16 04:00:13;;;;;;;14.80;13.40;;;20.40;99.90;;;;;;4994588;28;20037;-78
2022/08/16 04:02:41;;;;;;;13.98;12.57;;;20.40;99.90;;;;;;5007548;28;20414;-78
2022/08/16 04:05:07;;;;;;;16.50;14.90;;;20.40;99.90;;;;;;5008315;28;20057;-78
2022/08/16 04:07:33;;;;;;;17.08;14.07;;;20.50;99.90;;;;;;4992213;28;20394;-78
2022/08/16 04:09:59;;;;;;;18.33;16.42;;;20.40;99.90;;;;;;5008833;28;20037;-78
2022/08/16 04:12:25;;;;;;;19.80;17.70;;;20.50;99.90;;;;;;5010300;28;20049;-78
2022/08/16 04:14:50;;;;;;;19.42;17.55;;;20.40;99.90;;;;;;4993164;28;20141;-78
2022/08/16 04:17:16;;;;;;;19.05;17.05;;;20.40;99.90;;;;;;5007985;28;20085;-78
2022/08/16 04:19:45;;;;;;;20.52;16.75;;;20.40;99.90;;;;;;5003444;28;20049;-78
2022/08/16 04:22:11;;;;;;;19.48;17.52;;;20.40;99.90;;;;;;5010524;28;20057;-78
2022/08/16 04:24:37;;;;;;;18.17;16.33;;;20.30;99.90;;;;;;4991801;28;20473;-78
2022/08/16 04:27:04;;;;;;;18.38;16.52;;;20.30;99.90;;;;;;4993518;28;20077;-78
2022/08/16 04:29:30;;;;;;;20.52;18.42;;;20.30;99.90;;;;;;5021016;28;20402;-78
2022/08/16 04:31:56;;;;;;;19.88;17.88;;;20.20;99.90;;;;;;5010170;28;20049;-78
2022/08/16 04:34:23;;;;;;;18.50;16.70;;;20.20;99.90;;;;;;5024720;28;20088;-78
2022/08/16 04:36:49;;;;;;;21.40;19.27;;;20.20;99.90;;;;;;5023114;28;20049;-79
2022/08/16 04:39:15;;;;;;;19.20;17.20;;;20.20;99.90;;;;;;5003376;28;20041;-78
2022/08/16 04:41:41;;;;;;;19.83;17.83;;;20.20;99.90;;;;;;5010163;28;20045;-79
2022/08/16 04:44:06;;;;;;;21.80;18.35;;;20.20;99.90;;;;;;4992314;28;20588;-79
2022/08/16 04:46:32;;;;;;;18.88;16.88;;;20.20;99.90;;;;;;5008313;28;20095;-78
2022/08/16 04:48:58;;;;;;;16.80;15.20;;;20.10;99.90;;;;;;5006287;28;20057;-77
2022/08/16 04:51:24;;;;;;;20.48;18.48;;;20.20;99.90;;;;;;5006692;28;20095;-77
2022/08/16 04:53:50;;;;;;;19.08;17.25;;;20.20;99.90;;;;;;5009731;28;20041;-80
2022/08/16 04:56:17;;;;;;;20.08;17.75;;;20.20;99.90;;;;;;5004711;28;20064;-80
2022/08/16 04:58:44;;;;;;;20.80;18.70;;;20.20;99.90;;;;;;5023545;28;20103;-80
2022/08/16 05:01:10;;;;;;;17.75;15.95;;;20.20;99.90;;;;;;5006018;28;20539;-80
2022/08/16 05:03:36;;;;;;;18.00;16.23;;;20.30;99.90;;;;;;5008190;28;20045;-79
2022/08/16 05:06:02;;;;;;;18.88;16.90;;;20.30;99.90;;;;;;5024424;28;20053;-80
2022/08/16 05:08:29;;;;;;;20.92;17.75;;;20.30;99.90;;;;;;5006938;28;20041;-80
2022/08/16 05:10:56;;;;;;;19.38;17.27;;;20.30;99.90;;;;;;5007222;28;20100;-80
2022/08/16 05:13:22;;;;;;;20.63;18.50;;;20.40;99.90;;;;;;5007892;28;20056;-80
2022/08/16 05:15:48;;;;;;;22.60;18.92;;;20.50;99.90;;;;;;5009286;28;20594;-79
2022/08/16 05:18:14;;;;;;;20.30;18.30;;;20.50;99.90;;;;;;5022532;28;20081;-79
2022/08/16 05:20:40;;;;;;;21.88;19.58;;;20.60;99.90;;;;;;4992353;28;20065;-80
2022/08/16 05:23:05;;;;;;;21.58;18.50;;;20.60;99.90;;;;;;5004774;28;20129;-79
2022/08/16 05:25:31;;;;;;;22.17;18.02;;;20.70;99.90;;;;;;4993353;28;20041;-79
2022/08/16 05:27:58;;;;;;;20.20;17.98;;;20.70;99.90;;;;;;5006062;28;20460;-79
2022/08/16 05:30:24;;;;;;;18.50;16.30;;;20.80;99.90;;;;;;5009156;28;20041;-79
2022/08/16 05:32:50;;;;;;;19.17;16.40;;;20.90;99.90;;;;;;5023689;28;20041;-79
2022/08/16 05:35:16;;;;;;;19.15;17.17;;;21.00;99.90;;;;;;5008663;28;20399;-81
2022/08/16 05:37:42;;;;;;;20.75;18.65;;;21.10;99.90;;;;;;5003318;28;20070;-81
2022/08/16 05:40:10;;;;;;;20.73;16.75;;;21.20;99.90;;;;;;5023397;28;20077;-81
2022/08/16 05:42:36;;;;;;;20.35;17.52;;;21.30;99.90;;;;;;5008091;28;20144;-80
2022/08/16 05:45:03;;;;;;;22.20;17.42;;;21.30;99.90;;;;;;5006473;28;20045;-81
2022/08/16 05:47:29;;;;;;;19.83;17.70;;;21.50;99.90;;;;;;4991151;28;20045;-80
2022/08/16 05:49:55;;;;;;;22.35;19.45;;;21.60;99.90;;;;;;5006683;28;20509;-81
2022/08/16 05:52:21;;;;;;;18.92;16.92;;;21.60;99.90;;;;;;4992598;28;20045;-80
2022/08/16 05:54:46;;;;;;;22.45;18.40;;;21.70;99.90;;;;;;5005348;28;20042;-78
2022/08/16 05:57:12;;;;;;;21.27;18.25;;;21.80;99.90;;;;;;5004947;28;20059;-80
2022/08/16 05:59:38;;;;;;;22.00;19.63;;;21.90;99.90;;;;;;5005507;28;20053;-79
2022/08/16 06:02:05;;;;;;;22.33;19.98;;;21.90;99.90;;;;;;4992503;28;20099;-84
2022/08/16 06:04:31;;;;;;;23.80;19.05;;;22.00;99.90;;;;;;5002843;28;21657;-81
2022/08/16 06:06:57;;;;;;;21.55;17.63;;;22.10;99.90;;;;;;5020396;28;20060;-82
2022/08/16 06:09:24;;;;;;;21.30;19.00;;;22.10;99.90;;;;;;4991605;28;20496;-81
2022/08/16 06:11:50;;;;;;;20.92;18.38;;;22.20;99.90;;;;;;5005644;28;20122;-80
2022/08/16 06:14:17;;;;;;;22.63;19.80;;;22.20;99.90;;;;;;4991750;28;20053;-81
2022/08/16 06:16:43;;;;;;;20.55;18.23;;;22.30;99.90;;;;;;5021360;28;20478;-81
2022/08/16 06:19:08;;;;;;;22.52;20.17;;;22.30;99.90;;;;;;5005879;28;20128;-80
2022/08/16 06:21:36;;;;;;;21.17;18.95;;;22.40;99.90;;;;;;4994011;28;20076;-81
2022/08/16 06:24:02;;;;;;;21.30;18.73;;;22.40;99.90;;;;;;5028857;28;20545;-80
2022/08/16 06:26:28;;;;;;;24.25;20.30;;;22.40;99.90;;;;;;4996931;28;20049;-81
2022/08/16 06:28:53;;;;;;;22.40;19.42;;;22.50;99.90;;;;;;4995369;28;20127;-81
2022/08/16 06:31:19;;;;;;;24.50;19.10;;;22.50;99.90;;;;;;4994412;28;20072;-82
2022/08/16 06:33:45;;;;;;;24.00;18.60;;;22.50;99.90;;;;;;5012292;28;20517;-82
2022/08/16 06:36:12;;;;;;;21.38;18.08;;;22.60;99.90;;;;;;5010287;28;20050;-82
2022/08/16 06:38:38;;;;;;;19.88;17.02;;;22.60;99.90;;;;;;5010123;28;20063;-81
2022/08/16 06:41:06;;;;;;;19.70;17.63;;;22.70;99.90;;;;;;4993660;28;20041;-82
2022/08/16 06:43:33;;;;;;;21.15;18.92;;;22.80;99.90;;;;;;5011034;28;20107;-82
2022/08/16 06:46:00;;;;;;;22.02;17.42;;;22.80;99.90;;;;;;4995375;28;20049;-82
2022/08/16 06:48:26;;;;;;;22.80;18.90;;;22.80;99.90;;;;;;5009122;28;20811;-81
2022/08/16 06:50:52;;;;;;;19.58;17.55;;;22.90;99.90;;;;;;5011792;28;20045;-81
2022/08/16 06:53:19;;;;;;;21.17;17.63;;;23.20;99.90;;;;;;4995546;28;20049;-82
2022/08/16 06:55:45;;;;;;;21.92;19.70;;;22.90;99.90;;;;;;5025405;28;20120;-82
2022/08/16 06:58:11;;;;;;;23.23;19.13;;;23.00;99.90;;;;;;4995109;28;20120;-83
2022/08/16 07:00:37;;;;;;;19.60;17.35;;;23.10;99.90;;;;;;4996270;28;20048;-86
2022/08/16 07:03:04;;;;;;;34.00;17.15;;;23.20;99.90;;;;;;5014278;28;20053;-86
2022/08/16 07:05:30;;;;;;;27.42;18.25;;;23.30;99.90;;;;;;5012903;28;20107;-84
2022/08/16 07:07:57;;;;;;;33.20;18.75;;;23.50;99.90;;;;;;5004791;28;20053;-87
2022/08/16 07:10:23;;;;;;;20.88;17.90;;;23.60;99.90;;;;;;5020079;28;20038;-86
2022/08/16 07:12:50;;;;;;;19.67;17.65;;;23.60;99.90;;;;;;5013930;28;20044;-85
2022/08/16 07:15:17;;;;;;;20.00;16.88;;;23.60;99.90;;;;;;5011179;28;20475;-85
2022/08/16 07:17:44;;;;;;;21.20;18.00;;;23.60;99.90;;;;;;5025604;28;20057;-85
2022/08/16 07:20:11;;;;;;;18.67;16.63;;;23.60;99.90;;;;;;5026082;28;20049;-84
2022/08/16 07:22:39;;;;;;;20.17;16.90;;;23.50;99.90;;;;;;5009753;28;20042;-84
2022/08/16 07:25:07;;;;;;;19.50;17.08;;;23.50;99.90;;;;;;4993508;28;20513;-84
2022/08/16 07:27:33;;;;;;;18.33;16.10;;;23.60;99.90;;;;;;5006151;28;20049;-80
2022/08/16 07:29:58;;;;;;;18.58;15.10;;;23.60;99.90;;;;;;4994437;28;20049;-80
2022/08/16 07:32:25;;;;;;;18.70;16.70;;;23.70;99.90;;;;;;4994586;28;20053;-79
2022/08/16 07:34:51;;;;;;;17.25;15.38;;;23.70;99.90;;;;;;4994579;28;20060;-78
2022/08/16 07:37:17;;;;;;;17.38;15.60;;;23.90;99.90;;;;;;4993972;28;20465;-77
2022/08/16 07:39:42;;;;;;;17.73;15.88;;;24.00;99.90;;;;;;5011375;28;20053;-77
2022/08/16 07:42:09;;;;;;;18.45;16.05;;;24.10;99.90;;;;;;5011116;28;20093;-77
2022/08/16 07:44:34;;;;;;;17.10;15.32;;;24.10;99.90;;;;;;5010208;28;20052;-77
2022/08/16 07:47:00;;;;;;;17.05;15.23;;;24.00;99.90;;;;;;5003386;28;20049;-77
2022/08/16 07:49:26;;;;;;;17.08;15.23;;;24.00;99.90;;;;;;5002136;28;20060;-77
2022/08/16 07:51:52;;;;;;;19.52;15.45;;;23.90;99.90;;;;;;4995227;28;20053;-77
2022/08/16 07:54:18;;;;;;;16.30;14.55;;;23.90;99.90;;;;;;5025823;28;20053;-77
2022/08/16 07:56:44;;;;;;;19.88;14.25;;;24.00;99.90;;;;;;5011420;28;20427;-77
2022/08/16 07:59:10;;;;;;;17.25;15.18;;;24.20;99.90;;;;;;5003833;28;20049;-77
2022/08/16 08:01:37;;;;;;;19.65;15.45;;;24.30;99.90;;;;;;5026920;28;20061;-77
2022/08/16 08:04:03;;;;;;;16.88;15.13;;;24.50;99.90;;;;;;4994553;28;20053;-77
2022/08/16 08:06:31;;;;;;;17.63;14.55;;;24.60;99.90;;;;;;5026112;28;20056;-78
2022/08/16 08:08:57;;;;;;;16.58;14.35;;;24.80;99.90;;;;;;5025451;28;20132;-78
2022/08/16 08:11:23;;;;;;;18.45;15.43;;;24.90;99.90;;;;;;4994159;28;20484;-77
2022/08/16 08:13:52;;;;;;;16.92;15.05;;;24.90;99.90;;;;;;4995483;28;20442;-78
2022/08/16 08:16:20;;;;;;;17.67;15.50;;;25.00;99.90;;;;;;5009569;28;20049;-78
2022/08/16 08:18:49;;;;;;;15.30;13.70;;;25.10;99.90;;;;;;5011320;28;20120;-77
2022/08/16 08:21:18;;;;;;;14.25;12.18;;;25.10;99.90;;;;;;4993941;28;20414;-78
2022/08/16 08:23:45;;;;;;;11.73;10.52;;;25.20;99.90;;;;;;5026815;28;20049;-77
2022/08/16 08:26:10;;;;;;;12.63;10.00;;;25.30;99.90;;;;;;5024806;28;20053;-78
2022/08/16 08:28:36;;;;;;;12.90;9.23;;;25.30;99.90;;;;;;5002457;28;20491;-78
2022/08/16 08:31:02;;;;;;;11.77;8.20;;;25.30;99.90;;;;;;5015179;28;20049;-78
2022/08/16 08:33:29;;;;;;;10.35;9.23;;;25.30;99.90;;;;;;4982207;28;20053;-78
2022/08/16 08:36:01;;;;;;;10.45;8.60;;;25.40;99.90;;;;;;5013693;28;20107;-78
2022/08/16 08:38:30;;;;;;;13.80;8.57;;;25.60;99.90;;;;;;5027775;28;20049;-78
2022/08/16 08:40:55;;;;;;;13.63;8.77;;;25.80;99.90;;;;;;5006185;28;20131;-79
2022/08/16 08:43:21;;;;;;;13.02;8.57;;;26.00;99.90;;;;;;4993836;28;20103;-79
2022/08/16 08:45:47;;;;;;;13.32;8.65;;;26.20;99.90;;;;;;5006910;28;20061;-77
2022/08/16 08:48:13;;;;;;;15.73;8.38;;;26.30;99.90;;;;;;5009777;28;20052;-77
2022/08/16 08:50:41;;;;;;;11.82;8.27;;;26.40;99.90;;;;;;5025601;28;20166;-77
2022/08/16 08:53:07;;;;;;;12.30;8.20;;;26.50;99.90;;;;;;5025608;28;20045;-78
2022/08/16 08:55:33;;;;;;;13.45;8.52;;;26.70;99.90;;;;;;5007222;28;20042;-77
2022/08/16 08:57:59;;;;;;;13.13;8.70;;;26.90;99.90;;;;;;5005203;28;20483;-77
2022/08/16 09:00:27;;;;;;;9.27;8.30;;;27.00;99.90;;;;;;5008812;28;20042;-76
2022/08/16 09:02:53;;;;;;;12.00;8.05;;;27.20;99.90;;;;;;5028056;28;20049;-77
2022/08/16 09:05:24;;;;;;;10.20;9.18;;;27.30;99.90;;;;;;5029619;28;20144;-76
2022/08/16 09:07:51;;;;;;;11.18;9.27;;;27.30;99.90;;;;;;5028490;28;20060;-75
2022/08/16 09:10:17;;;;;;;11.68;9.73;;;27.40;99.90;;;;;;5012369;28;20049;-76
2022/08/16 09:12:42;;;;;;;12.50;9.10;;;27.20;99.90;;;;;;5014241;28;20060;-75
2022/08/16 09:15:11;;;;;;;14.45;8.18;;;27.30;99.90;;;;;;5006490;28;20045;-77
2022/08/16 09:17:37;;;;;;;12.55;8.18;;;27.20;99.90;;;;;;5028919;28;20126;-76
2022/08/16 09:20:05;;;;;;;11.38;8.27;;;27.20;99.90;;;;;;4996309;28;20073;-76
2022/08/16 09:22:31;;;;;;;9.68;7.82;;;27.30;99.90;;;;;;5006490;28;20052;-77
2022/08/16 09:24:57;;;;;;;11.30;8.73;;;27.40;99.90;;;;;;4990793;28;20050;-76
2022/08/16 09:27:24;;;;;;;10.20;8.40;;;27.50;99.90;;;;;;5012033;28;20057;-76
2022/08/16 09:29:50;;;;;;;11.52;8.45;;;27.60;99.90;;;;;;5011088;28;20046;-76
2022/08/16 09:32:19;;;;;;;12.63;9.10;;;27.60;99.90;;;;;;4997324;28;20128;-76
2022/08/16 09:34:50;;;;;;;11.80;8.57;;;27.50;99.90;;;;;;5028883;28;20124;-76
2022/08/16 09:37:15;;;;;;;10.80;9.23;;;27.60;99.90;;;;;;5018624;28;20037;-76
2022/08/16 09:39:43;;;;;;;12.98;9.32;;;27.50;99.90;;;;;;5018454;28;20056;-75
2022/08/16 09:42:09;;;;;;;10.77;9.38;;;27.60;99.90;;;;;;5007590;28;20053;-75
2022/08/16 09:44:35;;;;;;;12.40;8.88;;;27.70;99.90;;;;;;5004223;28;20380;-77
2022/08/16 09:47:01;;;;;;;11.23;8.98;;;27.70;99.90;;;;;;4998878;28;20518;-76
2022/08/16 09:49:27;;;;;;;11.68;8.73;;;27.80;99.90;;;;;;5006742;28;20160;-76
2022/08/16 09:51:53;;;;;;;11.30;8.70;;;27.90;99.90;;;;;;5023071;28;20173;-76
2022/08/16 09:54:24;;;;;;;10.38;8.68;;;28.00;99.90;;;;;;5003863;28;20125;-76
2022/08/16 09:56:50;;;;;;;12.52;9.68;;;28.20;99.90;;;;;;5005511;28;20536;-77
2022/08/16 09:59:17;;;;;;;10.98;8.68;;;28.20;99.90;;;;;;5010453;28;20128;-76
2022/08/16 10:01:43;;;;;;;11.25;9.18;;;28.20;99.90;;;;;;5004941;28;20052;-76
2022/08/16 10:04:10;;;;;;;10.15;8.10;;;28.20;99.90;;;;;;5005336;28;20554;-75
2022/08/16 10:06:37;;;;;;;10.30;7.70;;;28.10;99.90;;;;;;5020448;28;20246;-83
2022/08/16 10:09:05;;;;;;;9.60;8.15;;;28.10;99.90;;;;;;5005442;28;20465;-76
2022/08/16 10:14:15;;;;;;;8.65;6.85;;;27.90;99.90;;;;;;5006088;28;20597;-77
2022/08/16 10:16:44;;;;;;;10.07;7.55;;;28.20;99.90;;;;;;5022511;28;20045;-77
2022/08/16 10:19:11;;;;;;;9.07;7.50;;;28.40;99.90;;;;;;4999253;28;20058;-76
2022/08/16 10:21:49;;;;;;;9.73;8.20;;;28.50;99.90;;;;;;5005096;28;20045;-75
2022/08/16 10:24:15;;;;;;;13.40;8.10;;;28.40;99.90;;;;;;5036794;28;20046;-76
2022/08/16 10:26:41;;;;;;;13.05;8.68;;;28.30;99.90;;;;;;5022863;28;20049;-76
2022/08/16 10:29:07;;;;;;;12.77;8.43;;;28.20;99.90;;;;;;5002601;28;20095;-76
2022/08/16 10:31:33;;;;;;;9.48;7.90;;;28.20;99.90;;;;;;5024070;28;20048;-75
2022/08/16 10:34:00;;;;;;;12.75;8.10;;;28.30;99.90;;;;;;4988622;28;20053;-77
2022/08/16 10:36:27;;;;;;;14.45;8.23;;;28.40;99.90;;;;;;5020429;28;20759;-76
2022/08/16 10:38:52;;;;;;;10.13;8.27;;;28.50;99.90;;;;;;5038446;28;20057;-79
2022/08/16 10:41:18;;;;;;;9.63;7.53;;;28.50;99.90;;;;;;5003872;28;20556;-76
2022/08/16 10:43:44;;;;;;;11.73;7.55;;;28.50;99.90;;;;;;5021710;28;20049;-77
2022/08/16 10:46:11;;;;;;;10.00;7.68;;;28.40;99.90;;;;;;5002263;28;20131;-76
2022/08/16 10:48:39;;;;;;;9.27;7.43;;;28.40;99.90;;;;;;5021970;28;20124;-75
2022/08/16 10:51:05;;;;;;;8.38;7.45;;;28.40;99.90;;;;;;5022104;28;20057;-75
2022/08/16 10:53:32;;;;;;;10.23;7.15;;;28.50;99.90;;;;;;5004703;28;20098;-76
2022/08/16 10:55:58;;;;;;;9.45;7.28;;;28.60;99.90;;;;;;5021225;28;20073;-75
2022/08/16 10:58:24;;;;;;;8.60;7.40;;;28.40;99.90;;;;;;4989855;28;20502;-76
2022/08/16 11:00:50;;;;;;;9.18;7.80;;;28.50;99.90;;;;;;5023335;28;20045;-75
2022/08/16 11:03:17;;;;;;;9.60;7.53;;;28.40;99.90;;;;;;5018314;28;20060;-75
2022/08/16 11:05:43;;;;;;;8.60;7.03;;;28.30;99.90;;;;;;5004450;28;20049;-76
2022/08/16 11:08:10;;;;;;;8.70;7.72;;;28.40;99.90;;;;;;4991450;28;20068;-76
2022/08/16 11:10:40;;;;;;;9.30;7.28;;;28.40;99.90;;;;;;5001988;28;20129;-76
2022/08/16 11:13:08;;;;;;;8.65;7.57;;;28.60;99.90;;;;;;5019792;28;20829;-76
2022/08/16 11:15:35;;;;;;;8.55;7.55;;;28.70;99.90;;;;;;5027135;28;20076;-76
2022/08/16 11:18:06;;;;;;;7.82;7.03;;;28.90;99.90;;;;;;5004120;28;20053;-77
2022/08/16 11:20:32;;;;;;;10.10;7.88;;;29.00;99.90;;;;;;5011914;28;20049;-77
2022/08/16 11:22:58;;;;;;;8.63;7.38;;;29.00;99.90;;;;;;5010355;28;20163;-76
2022/08/16 11:25:26;;;;;;;8.77;6.97;;;28.90;99.90;;;;;;5009738;28;20419;-77
2022/08/16 11:27:54;;;;;;;9.75;8.25;;;29.10;99.90;;;;;;5026575;28;20065;-76
2022/08/16 11:30:21;;;;;;;10.55;7.68;;;28.80;99.90;;;;;;5027052;28;20056;-77
2022/08/16 11:32:47;;;;;;;8.07;7.32;;;28.70;99.90;;;;;;5010326;28;20049;-75
2022/08/16 11:35:18;;;;;;;8.07;7.25;;;28.70;99.90;;;;;;5010454;28;20052;-75
2022/08/16 11:37:50;;;;;;;8.13;7.40;;;29.00;99.90;;;;;;5026449;28;20484;-75
2022/08/16 11:40:16;;;;;;;8.63;6.88;;;29.00;99.90;;;;;;5019549;28;20045;-76
2022/08/16 11:42:42;;;;;;;10.63;8.00;;;28.90;99.90;;;;;;5025131;28;20487;-76
2022/08/16 11:45:08;;;;;;;8.00;7.20;;;28.70;99.90;;;;;;5026439;28;20045;-76
2022/08/16 11:47:34;;;;;;;8.70;7.90;;;28.70;99.90;;;;;;5026777;28;20053;-76
2022/08/16 11:50:00;;;;;;;8.32;7.53;;;28.60;99.90;;;;;;5011715;28;20052;-76
2022/08/16 11:52:26;;;;;;;9.93;7.25;;;28.40;99.90;;;;;;5002795;28;20045;-75
2022/08/16 11:54:52;;;;;;;7.47;6.88;;;28.20;99.90;;;;;;5009705;28;20148;-75
2022/08/16 11:57:18;;;;;;;7.40;6.20;;;28.10;99.90;;;;;;5002821;28;20126;-76
2022/08/16 11:59:43;;;;;;;8.13;6.80;;;27.90;99.90;;;;;;5025621;28;20037;-76
2022/08/16 12:02:09;;;;;;;5.95;5.45;;;27.80;99.90;;;;;;4993475;28;20494;-76
2022/08/16 12:04:35;;;;;;;9.25;5.65;;;27.80;99.90;;;;;;5012702;28;20045;-75
2022/08/16 12:07:03;;;;;;;7.78;5.85;;;28.00;99.90;;;;;;5005771;28;20057;-75
2022/08/16 12:09:29;;;;;;;6.85;5.80;;;28.00;99.90;;;;;;5030786;28;20068;-75
2022/08/16 12:11:57;;;;;;;8.13;5.90;;;28.20;99.90;;;;;;4998251;28;20368;-75
2022/08/16 12:14:23;;;;;;;7.45;5.53;;;28.40;99.90;;;;;;5024002;28;20415;-75
2022/08/16 12:16:54;;;;;;;6.07;5.47;;;28.60;99.90;;;;;;5029063;28;20060;-75
2022/08/16 12:19:21;;;;;;;6.57;5.97;;;28.80;99.90;;;;;;4997887;28;20064;-75
2022/08/16 12:21:47;;;;;;;8.00;6.90;;;28.80;99.90;;;;;;5028978;28;20098;-75
2022/08/16 12:24:13;;;;;;;9.63;8.73;;;28.80;99.90;;;;;;5014390;28;20068;-75
2022/08/16 12:26:40;;;;;;;10.00;9.00;;;28.60;99.90;;;;;;5003598;28;20049;-76
2022/08/16 12:29:06;;;;;;;8.55;7.70;;;28.30;99.90;;;;;;5029927;28;20068;-75
2022/08/16 12:31:31;;;;;;;7.90;6.60;;;28.10;99.90;;;;;;5014163;28;20045;-75
2022/08/16 12:33:57;;;;;;;8.20;6.15;;;27.90;99.90;;;;;;5011885;28;20568;-75